Time;durP1;ratioP1;P1;durP2;ratioP2;P2;SDS_P1;SDS_P2;PMS_P1;PMS_P2;Temp;Humidity;BMP_temperature;BMP_pressure;BME280_temperature;BME280_humidity;BME280_pressure;Samples;Min_cycle;Max_cycle;Signal;HPM_P1;HPM_P2
2023/10/10 00:02:19;;;;;;;11.97;6.40;;;;;;;-141.97;55.57;47494.09;5033301;28;20177;-86
2023/10/10 00:04:47;;;;;;;11.63;6.00;;;;;;;-141.97;54.97;47392.22;5032863;28;20288;-86
2023/10/10 00:07:14;;;;;;;16.37;6.23;;;;;;;-141.97;54.71;47419.13;5032881;28;20185;-86
2023/10/10 00:09:43;;;;;;;10.13;5.63;;;;;;;-141.97;54.32;47494.09;5014352;28;20287;-87
2023/10/10 00:12:09;;;;;;;13.53;5.83;;;;;;;-141.97;53.92;47472.94;5032419;28;20644;-87
2023/10/10 00:14:35;;;;;;;12.67;6.50;;;;;;;-141.97;53.38;47597.88;5032561;28;20273;-87
2023/10/10 00:17:00;;;;;;;11.90;5.97;;;;;;;-141.97;53.21;47409.53;5041921;28;20186;-87
2023/10/10 00:19:37;;;;;;;14.53;6.30;;;;;;;-141.97;53.16;47501.78;5018422;28;20240;-88
2023/10/10 00:22:05;;;;;;;13.47;6.23;;;;;;;-141.97;52.96;47496.00;5032511;28;20215;-87
2023/10/10 00:24:32;;;;;;;12.83;6.33;;;;;;;-141.97;53.07;47421.06;5032123;28;20154;-87
2023/10/10 00:27:12;;;;;;;11.23;6.00;;;;;;;-141.97;52.86;47594.03;5032470;28;20612;-87
2023/10/10 00:29:42;;;;;;;11.53;5.80;;;;;;;-141.97;52.84;47492.16;5032796;28;20231;-87
2023/10/10 00:32:17;;;;;;;15.47;5.83;;;;;;;-141.97;52.74;47440.28;5015423;28;20277;-87
2023/10/10 00:34:47;;;;;;;12.17;5.77;;;;;;;-141.97;52.62;47461.41;5031883;28;20216;-88
2023/10/10 00:37:14;;;;;;;14.73;6.13;;;;;;;-141.97;53.01;47430.66;5004200;28;20180;-88
2023/10/10 00:39:39;;;;;;;14.23;6.33;;;;;;;-141.97;52.69;47480.63;5031947;28;20623;-89
2023/10/10 00:42:08;;;;;;;11.10;6.10;;;;;;;-141.97;52.83;47401.84;5032320;28;20246;-88
2023/10/10 00:44:37;;;;;;;11.43;5.60;;;;;;;-141.97;52.75;47419.13;5032669;28;20647;-87
2023/10/10 00:47:04;;;;;;;10.70;5.77;;;;;;;-141.97;52.29;47472.94;5033959;28;20193;-88
2023/10/10 00:49:34;;;;;;;11.43;5.73;;;;;;;-141.97;51.94;47496.00;5031539;28;20173;-87
2023/10/10 00:52:07;;;;;;;11.03;5.73;;;;;;;-141.97;51.68;47496.00;5014349;28;20170;-87
2023/10/10 00:54:34;;;;;;;11.60;6.27;;;;;;;-141.97;51.87;47599.81;5014009;28;20225;-86
2023/10/10 00:57:03;;;;;;;15.87;6.40;;;;;;;-141.97;52.33;47509.47;5031929;28;20159;-86
2023/10/10 00:59:54;;;;;;;14.60;6.93;;;;;;;-141.97;52.83;47503.69;5031467;28;20158;-87
2023/10/10 01:02:20;;;;;;;14.17;6.47;;;;;;;-141.97;52.90;47580.59;5031180;28;20251;-87
2023/10/10 01:07:19;;;;;;;12.03;6.37;;;;;;;-141.97;52.45;47432.59;5031154;28;20162;-87
2023/10/10 01:09:55;;;;;;;9.87;6.27;;;;;;;-141.97;52.23;47442.19;5031817;28;20698;-87
2023/10/10 01:12:35;;;;;;;10.13;6.23;;;;;;;-141.97;52.59;47492.16;5040374;28;20153;-86
2023/10/10 01:15:13;;;;;;;13.23;6.43;;;;;;;-141.97;52.90;47496.00;5041897;28;20255;-85
2023/10/10 01:17:39;;;;;;;13.07;6.73;;;;;;;-141.97;52.86;47415.28;5032603;28;20530;-86
2023/10/10 01:20:14;;;;;;;16.10;7.20;;;;;;;-141.97;53.30;47453.72;5031785;28;20260;-87
2023/10/10 01:22:46;;;;;;;15.67;6.80;;;;;;;-141.97;52.95;47519.06;5032102;28;20166;-87
2023/10/10 01:33:35;;;;;;;13.77;6.47;;;;;;;-141.97;51.83;47513.31;4970827;28;20611;-87
2023/10/10 01:39:19;;;;;;;12.77;6.00;;;;;;;-141.97;52.11;47451.81;4953842;28;20292;-85
2023/10/10 01:41:48;;;;;;;15.07;7.00;;;;;;;-141.97;52.12;47459.50;4968964;28;20220;-85
2023/10/10 01:44:23;;;;;;;13.17;6.20;;;;;;;-141.97;52.37;47482.56;4977562;28;20216;-87
2023/10/10 01:46:53;;;;;;;13.17;6.17;;;;;;;-141.97;52.64;47546.00;4957423;29;20207;-88
2023/10/10 01:49:22;;;;;;;11.53;6.37;;;;;;;-141.97;52.72;47644.00;4956726;29;20199;-88
2023/10/10 01:51:54;;;;;;;11.97;6.23;;;;;;;-141.97;52.99;47492.16;4951024;29;20208;-87
2023/10/10 01:54:20;;;;;;;15.97;6.43;;;;;;;-141.97;53.07;47515.22;4934850;29;20693;-88
2023/10/10 01:56:46;;;;;;;12.30;5.90;;;;;;;-141.97;53.67;47496.00;4951541;29;20198;-88
2023/10/10 01:59:25;;;;;;;10.43;5.97;;;;;;;-141.97;53.85;47405.69;4951902;29;20200;-85
2023/10/10 02:01:57;;;;;;;12.93;6.30;;;;;;;-141.97;54.90;47492.16;4950781;28;20182;-88
2023/10/10 02:04:27;;;;;;;14.20;6.30;;;;;;;-141.97;54.93;47373.00;4969860;28;20187;-87
2023/10/10 02:06:57;;;;;;;12.60;6.70;;;;;;;-141.97;55.06;47522.91;4989670;28;20599;-89
2023/10/10 02:11:54;;;;;;;14.03;6.40;;;;;;;-141.97;55.60;47355.72;5010889;28;20182;-87
2023/10/10 02:14:26;;;;;;;15.70;6.57;;;;;;;-141.97;55.27;47490.25;5033901;28;20269;-89
2023/10/10 02:16:55;;;;;;;19.30;6.83;;;;;;;-141.97;55.06;47576.75;5014989;28;20277;-90
2023/10/10 02:19:33;;;;;;;16.23;6.70;;;;;;;-141.97;55.26;47569.06;5013882;28;20189;-88
2023/10/10 02:24:49;;;;;;;19.30;6.83;;;;;;;-141.97;54.94;47499.84;5035177;28;20161;-87
2023/10/10 02:27:28;;;;;;;21.37;7.30;;;;;;;-141.97;55.40;47678.63;5017141;28;20650;-86
2023/10/10 02:29:53;;;;;;;17.73;7.10;;;;;;;-141.97;55.61;47607.50;5034415;28;20521;-86
2023/10/10 02:32:19;;;;;;;17.73;7.00;;;;;;;-141.97;55.78;47615.19;5034406;28;20165;-86
2023/10/10 02:34:55;;;;;;;18.53;7.07;;;;;;;-141.97;55.93;47478.72;5034488;28;20182;-86
2023/10/10 02:39:56;;;;;;;13.67;6.20;;;;;;;-141.97;56.18;47373.00;5025042;28;20283;-91
2023/10/10 02:42:23;;;;;;;16.67;7.27;;;;;;;-141.97;56.30;47597.88;5017317;28;20235;-88
2023/10/10 02:44:57;;;;;;;14.67;6.87;;;;;;;-141.97;55.97;47515.22;5054629;28;20211;-90
2023/10/10 02:47:32;;;;;;;16.73;6.90;;;;;;;-141.97;55.50;47398.00;5036429;28;20173;-89
2023/10/10 02:50:09;;;;;;;15.50;7.07;;;;;;;-141.97;55.38;47476.78;5052419;28;20185;-89
2023/10/10 02:52:39;;;;;;;19.90;7.33;;;;;;;-141.97;55.81;47584.44;5035163;28;20617;-88
2023/10/10 02:55:14;;;;;;;20.27;6.93;;;;;;;-141.97;55.94;47542.16;5016758;28;20212;-89
2023/10/10 02:57:42;;;;;;;20.20;7.30;;;;;;;-141.97;55.23;47603.66;5018714;28;20165;-89
2023/10/10 03:03:03;;;;;;;15.50;7.27;;;;;;;-141.97;55.13;47353.78;4935336;29;20294;-90
2023/10/10 03:05:44;;;;;;;21.13;7.87;;;;;;;-141.97;55.17;47553.69;4938788;29;20185;-90
2023/10/10 03:08:18;;;;;;;20.37;7.13;;;;;;;-141.97;55.54;47465.25;4943904;29;20205;-85
2023/10/10 03:10:54;;;;;;;16.57;7.57;;;;;;;-141.97;55.76;47499.84;4946185;29;20224;-86
2023/10/10 03:13:35;;;;;;;22.23;7.57;;;;;;;-141.97;55.39;47534.44;4958526;28;20593;-87
2023/10/10 03:16:40;;;;;;;21.37;7.70;;;;;;;-141.97;55.42;47388.38;4940116;29;20284;-86
2023/10/10 03:24:36;;;;;;;24.17;9.33;;;;;;;-141.97;55.68;47472.94;4942206;29;20170;-86
2023/10/10 03:27:36;;;;;;;26.23;10.30;;;;;;;-141.97;55.64;47594.03;4943158;29;20275;-84
2023/10/10 03:29:47;;;;;;;47.57;20.47;;;;;;;-141.97;55.27;47503.69;4952661;28;20255;-87
2023/10/10 03:32:25;;;;;;;22.43;12.20;;;;;;;-141.97;55.01;47497.94;4952569;29;20724;-85
2023/10/10 03:34:56;;;;;;;25.37;12.37;;;;;;;-141.97;54.53;47630.56;4953722;28;20211;-87
2023/10/10 05:24:08;;;;;;;45.30;16.67;;;;;;;-141.97;52.98;47457.56;5038085;28;20161;-87
2023/10/10 05:26:46;;;;;;;48.83;15.80;;;;;;;-141.97;53.46;47476.78;5028989;28;20569;-88
2023/10/10 05:29:14;;;;;;;53.20;15.80;;;;;;;-141.97;53.01;47451.81;5033297;28;20241;-89
2023/10/10 05:31:39;;;;;;;51.57;19.17;;;;;;;-141.97;52.69;47511.38;5031931;28;20272;-88
2023/10/10 05:34:05;;;;;;;45.13;15.37;;;;;;;-141.97;52.90;47459.50;5014318;28;20251;-87
2023/10/10 05:36:31;;;;;;;50.17;15.37;;;;;;;-141.97;53.21;47555.59;5033532;28;20172;-87
2023/10/10 05:38:56;;;;;;;44.37;13.73;;;;;;;-141.97;53.90;47567.13;5032107;28;20466;-87
2023/10/10 05:41:22;;;;;;;35.83;13.27;;;;;;;-141.97;53.61;47574.81;5003798;28;20229;-88
2023/10/10 05:43:51;;;;;;;33.93;14.50;;;;;;;-141.97;53.28;47513.31;5043790;28;20500;-89
2023/10/10 05:46:16;;;;;;;37.53;14.87;;;;;;;-141.97;52.44;47497.94;5051840;28;20154;-88
2023/10/10 05:48:42;;;;;;;44.93;16.90;;;;;;;-141.97;52.17;47655.53;5034054;28;20179;-88
2023/10/10 05:51:10;;;;;;;47.70;16.47;;;;;;;-141.97;52.39;47492.16;5026861;28;20200;-88
2023/10/10 05:53:35;;;;;;;73.57;22.00;;;;;;;-141.97;52.10;47497.94;5033096;28;20633;-86
2023/10/10 05:56:12;;;;;;;47.73;16.87;;;;;;;-141.97;52.31;47511.38;5035529;28;20225;-85
2023/10/10 05:58:44;;;;;;;50.57;17.53;;;;;;;-141.97;51.89;47446.03;5035526;28;20157;-85
2023/10/10 06:01:14;;;;;;;51.63;19.10;;;;;;;-141.97;52.25;47488.31;5021158;28;20182;-85
2023/10/10 06:03:46;;;;;;;42.63;17.80;;;;;;;-141.97;51.80;47432.59;5059098;28;20174;-90
2023/10/10 06:06:13;;;;;;;48.43;16.67;;;;;;;-141.97;52.36;47390.31;5035865;28;20178;-89
2023/10/10 06:08:44;;;;;;;44.23;17.13;;;;;;;-141.97;52.05;47380.69;5058880;28;20146;-90
2023/10/10 06:11:13;;;;;;;42.93;16.63;;;;;;;-141.97;51.63;47461.41;5031158;28;20224;-87
2023/10/10 06:13:40;;;;;;;44.00;16.47;;;;;;;-141.97;50.53;47365.31;5022067;28;20328;-89
2023/10/10 06:16:14;;;;;;;39.67;17.27;;;;;;;-141.97;50.03;47499.84;5039895;28;20188;-88
2023/10/10 06:18:45;;;;;;;43.70;16.63;;;;;;;-141.97;49.73;47373.00;5023300;28;20192;-88
2023/10/10 06:21:11;;;;;;;39.63;15.37;;;;;;;-141.97;50.26;47607.50;5021690;28;20551;-88
2023/10/10 06:23:36;;;;;;;39.47;15.70;;;;;;;-141.97;51.01;47547.91;5026033;28;20184;-88
2023/10/10 06:26:06;;;;;;;32.23;13.90;;;;;;;-141.97;51.97;47388.38;5041724;28;20397;-90
2023/10/10 06:28:35;;;;;;;37.33;14.57;;;;;;;-141.97;52.05;47440.28;5059568;28;20157;-87
2023/10/10 06:31:02;;;;;;;78.40;40.37;;;;;;;-141.97;51.02;47613.25;5033671;28;20181;-89
2023/10/10 06:34:06;;;;;;;;;;;;;;;;;;;;;
2023/10/10 06:37:35;;;;;;;36.80;15.10;;;;;;;-141.97;52.21;47524.84;5035271;28;20272;-90
2023/10/10 06:40:07;;;;;;;29.43;13.13;;;;;;;-141.97;51.82;47298.06;4959352;28;20323;-90
2023/10/10 07:01:04;;;;;;;38.20;17.57;;;;;;;-141.97;49.19;47434.50;4906668;29;20286;-91
2023/10/10 07:03:39;;;;;;;37.13;13.80;;;;;;;-141.97;49.15;47469.09;4917019;29;20587;-91
2023/10/10 07:06:08;;;;;;;34.23;13.37;;;;;;;-141.97;49.20;47484.47;4913876;29;20277;-90
2023/10/10 07:08:53;;;;;;;41.40;13.80;;;;;;;-141.97;48.50;47665.16;4911128;29;20209;-91
2023/10/10 07:11:25;;;;;;;30.90;13.40;;;;;;;-141.97;49.13;47463.34;4906784;29;20289;-83
2023/10/10 07:13:58;;;;;;;31.10;12.37;;;;;;;-141.97;48.88;47603.66;4906442;29;20662;-90
2023/10/10 07:16:23;;;;;;;42.10;13.13;;;;;;;-141.97;48.84;47446.03;4951535;28;20222;-88
2023/10/10 07:18:56;;;;;;;30.77;12.63;;;;;;;-141.97;47.93;47580.59;4994280;28;20164;-89
2023/10/10 07:21:36;;;;;;;29.83;12.40;;;;;;;-141.97;47.60;47499.84;4976194;28;20236;-90
2023/10/10 07:24:14;;;;;;;33.93;12.23;;;;;;;-141.97;47.14;47478.72;4992660;28;20171;-90
2023/10/10 07:26:41;;;;;;;29.17;11.30;;;;;;;-141.97;47.61;47503.69;4976467;28;20234;-90
2023/10/10 07:29:26;;;;;;;29.63;11.27;;;;;;;-141.97;48.01;47665.16;4976235;28;20681;-91
2023/10/10 07:31:58;;;;;;;26.77;10.70;;;;;;;-141.97;47.57;47363.41;4991593;28;20191;-90
2023/10/10 07:34:34;;;;;;;28.30;10.77;;;;;;;-141.97;47.37;47595.97;4975643;28;20250;-89
2023/10/10 07:37:09;;;;;;;28.17;10.50;;;;;;;-141.97;46.83;47315.34;4993838;28;20225;-90
2023/10/10 07:42:27;;;;;;;28.07;11.00;;;;;;;-141.97;46.33;47494.09;4996144;28;20267;-90
2023/10/10 07:44:54;;;;;;;24.23;10.07;;;;;;;-141.97;45.50;47476.78;5018652;28;20222;-90
2023/10/10 07:47:25;;;;;;;27.27;10.03;;;;;;;-141.97;44.48;47392.22;5045912;28;20158;-90
2023/10/10 07:49:53;;;;;;;21.77;9.60;;;;;;;-141.97;44.13;47355.72;5041925;28;20162;-91
2023/10/10 07:52:20;;;;;;;22.50;9.97;;;;;;;-141.97;43.90;47467.19;5016381;28;20181;-89
2023/10/10 07:54:51;;;;;;;25.93;11.00;;;;;;;-141.97;43.11;47626.72;5016457;28;20633;-91
2023/10/10 07:57:22;;;;;;;25.77;8.70;;;;;;;-141.97;42.33;47457.56;5033418;28;20249;-90
2023/10/10 08:00:00;;;;;;;21.23;8.90;;;;;;;-141.97;40.95;47363.41;5033393;28;20185;-91
2023/10/10 08:02:31;;;;;;;23.33;8.03;;;;;;;-141.97;39.92;47438.34;5035849;28;20514;-92
2023/10/10 08:05:01;;;;;;;31.67;9.30;;;;;;;-141.97;39.91;47426.81;5033512;28;20629;-92
2023/10/10 08:07:27;;;;;;;19.53;7.37;;;;;;;-141.97;39.45;47359.56;5037423;28;20293;-91
2023/10/10 08:10:11;;;;;;;21.33;7.67;;;;;;;-141.97;39.83;47307.66;5020052;28;20261;-91
2023/10/10 08:12:38;;;;;;;14.13;6.67;;;;;;;-141.97;40.05;47572.91;5032811;28;20193;-90
2023/10/10 08:15:20;;;;;;;12.83;6.63;;;;;;;-141.97;40.87;47330.72;5040663;28;20206;-88
2023/10/10 08:17:52;;;;;;;15.73;6.37;;;;;;;-141.97;40.60;47453.72;5050481;28;20162;-92
2023/10/10 08:23:16;;;;;;;19.30;6.50;;;;;;;-141.97;42.29;47620.94;4979798;28;20255;-90
2023/10/10 08:25:42;;;;;;;15.77;6.40;;;;;;;-141.97;42.01;47476.78;4974920;28;20172;-90
2023/10/10 08:28:07;;;;;;;18.93;6.47;;;;;;;-141.97;42.11;47315.34;4974268;28;20587;-91
2023/10/10 08:30:33;;;;;;;18.10;6.90;;;;;;;-141.97;41.72;47626.72;4974687;28;20208;-91
2023/10/10 08:32:59;;;;;;;18.03;7.10;;;;;;;-141.97;41.35;47292.28;4957548;28;20215;-91
2023/10/10 08:35:29;;;;;;;24.90;6.70;;;;;;;-141.97;40.00;47426.81;4972406;28;20255;-93
2023/10/10 08:37:56;;;;;;;20.80;7.03;;;;;;;-141.97;38.62;47338.41;4959213;28;20175;-92
2023/10/10 08:40:22;;;;;;;17.57;6.60;;;;;;;-141.97;37.95;47361.47;4955692;28;20211;-91
2023/10/10 08:42:50;;;;;;;13.90;7.10;;;;;;;-141.97;38.50;47296.13;4971334;28;20524;-92
2023/10/10 08:45:23;;;;;;;12.13;6.47;;;;;;;-141.97;38.68;47497.94;4971551;28;20696;-89
2023/10/10 08:47:52;;;;;;;12.63;5.77;;;;;;;-141.97;38.73;47413.38;4971253;28;20187;-86
2023/10/10 08:50:18;;;;;;;18.23;5.93;;;;;;;-141.97;38.84;47378.78;4954828;28;20204;-87
2023/10/10 08:52:46;;;;;;;18.57;5.73;;;;;;;-141.97;39.33;47373.00;4970152;28;20250;-89
2023/10/10 08:55:18;;;;;;;7.90;5.03;;;;;;;-141.97;40.06;47382.63;4954936;28;20202;-87
2023/10/10 08:57:43;;;;;;;9.60;5.10;;;;;;;-141.97;40.82;47215.41;4973360;28;20191;-89
2023/10/10 09:00:11;;;;;;;12.10;5.07;;;;;;;-141.97;40.89;47380.69;5034245;28;20162;-88
2023/10/10 09:02:55;;;;;;;15.73;5.27;;;;;;;-141.97;39.85;47449.88;5032853;28;20189;-87
2023/10/10 09:05:23;;;;;;;14.70;4.93;;;;;;;-141.97;40.27;47649.78;5014971;28;20259;-85
2023/10/10 09:07:49;;;;;;;9.07;4.93;;;;;;;-141.97;40.60;47570.97;5047294;28;20160;-90
2023/10/10 09:10:15;;;;;;;7.77;5.03;;;;;;;-141.97;40.43;47465.25;5019285;28;20174;-90
2023/10/10 09:12:58;;;;;;;6.60;4.37;;;;;;;-141.97;40.11;47536.38;5035041;28;20227;-90
2023/10/10 09:15:25;;;;;;;11.27;4.90;;;;;;;-141.97;39.71;47353.78;5015521;28;20206;-89
2023/10/10 09:17:58;;;;;;;8.13;4.30;;;;;;;-141.97;39.75;47499.84;5014828;28;20263;-89
2023/10/10 09:20:32;;;;;;;11.53;4.83;;;;;;;-141.97;40.00;47417.22;5024804;28;20204;-90
2023/10/10 09:23:07;;;;;;;17.67;5.20;;;;;;;-141.97;39.36;47357.63;5048102;28;20173;-88
2023/10/10 09:25:44;;;;;;;27.90;6.30;;;;;;;-141.97;37.85;47390.31;4987067;28;20226;-88
2023/10/10 09:28:15;;;;;;;16.53;4.67;;;;;;;-141.97;37.77;47238.47;4966509;28;20290;-89
2023/10/10 09:30:45;;;;;;;14.63;4.40;;;;;;;-141.97;36.85;47424.91;4974223;28;20251;-88
2023/10/10 09:33:28;;;;;;;11.80;5.00;;;;;;;-141.97;36.53;47595.97;4994840;28;20254;-89
2023/10/10 09:36:15;;;;;;;10.70;4.63;;;;;;;-141.97;34.78;47411.44;4996403;28;20253;-90
2023/10/10 09:38:46;;;;;;;9.45;4.90;;;;;;;-141.97;34.79;47388.38;4955475;28;20540;-90
2023/10/10 10:06:37;;;;;;;7.33;4.53;;;;;;;-141.97;36.65;47401.84;4957168;29;20200;-88
2023/10/10 10:09:38;;;;;;;24.40;11.77;;;;;;;-141.97;37.19;47392.22;4957346;29;20173;-91
2023/10/10 10:12:31;;;;;;;11.60;5.60;;;;;;;-141.97;37.05;47426.81;4953440;29;20698;-89
2023/10/10 10:15:18;;;;;;;12.00;4.20;;;;;;;-141.97;36.87;47422.97;4938118;29;20210;-89
2023/10/10 10:21:14;;;;;;;7.25;3.47;;;;;;;-141.97;36.64;47380.69;4932878;29;20159;-89
2023/10/10 10:23:55;;;;;;;10.27;3.53;;;;;;;-141.97;37.08;47369.16;4939258;29;20253;-87
2023/10/10 10:26:31;;;;;;;8.17;3.17;;;;;;;-141.97;36.93;47246.16;4939297;29;20165;-86
2023/10/10 10:28:58;;;;;;;9.20;3.60;;;;;;;-141.97;37.28;47586.34;4931801;29;20188;-88
2023/10/10 10:31:35;;;;;;;13.73;3.60;;;;;;;-141.97;37.41;47411.44;4954254;29;20326;-88
2023/10/10 10:34:08;;;;;;;9.37;3.43;;;;;;;-141.97;37.54;47392.22;4919115;29;20290;-86
2023/10/10 10:36:41;;;;;;;7.73;3.43;;;;;;;-141.97;37.51;47367.25;4913373;29;20226;-88
2023/10/10 10:39:21;;;;;;;6.87;3.80;;;;;;;-141.97;37.71;47284.59;4897668;29;20225;-88
2023/10/10 10:41:53;;;;;;;5.97;3.50;;;;;;;-141.97;37.39;47620.94;4912198;28;20192;-87
2023/10/10 10:47:45;;;;;;;7.82;3.45;;;;;;;-141.97;36.64;47357.63;4994588;28;20631;-86
2023/10/10 10:50:29;;;;;;;6.70;3.23;;;;;;;-141.97;37.27;47457.56;4994938;28;20199;-86
2023/10/10 10:53:05;;;;;;;5.47;3.33;;;;;;;-141.97;37.79;47403.75;4977469;28;20187;-86
2023/10/10 10:55:31;;;;;;;8.23;4.00;;;;;;;-141.97;38.84;47240.41;5021877;28;20216;-87
2023/10/10 11:03:24;;;;;;;7.83;3.93;;;;;;;-141.97;39.25;47419.13;5036020;28;20178;-89
2023/10/10 11:05:54;;;;;;;6.93;3.70;;;;;;;-141.97;39.30;47434.50;5050659;28;20147;-89
2023/10/10 11:08:51;;;;;;;8.17;3.80;;;;;;;-141.97;39.10;47373.00;5043564;28;20182;-86
2023/10/10 11:11:24;;;;;;;5.67;4.10;;;;;;;-141.97;39.13;47595.97;5034378;28;20202;-87
2023/10/10 11:13:54;;;;;;;6.90;3.80;;;;;;;-141.97;39.14;47630.56;5034223;28;20194;-87
2023/10/10 11:16:28;;;;;;;10.23;3.93;;;;;;;-141.97;39.43;47434.50;5034162;28;20186;-87
2023/10/10 11:19:12;;;;;;;12.53;4.00;;;;;;;-141.97;39.59;47403.75;5016479;28;20779;-88
2023/10/10 11:21:48;;;;;;;11.23;4.33;;;;;;;-141.97;39.76;47284.59;5034085;28;20219;-87
2023/10/10 11:24:15;;;;;;;9.13;4.50;;;;;;;-141.97;39.98;47584.44;5016519;28;20828;-86
2023/10/10 11:26:43;;;;;;;8.30;4.27;;;;;;;-141.97;40.20;47451.81;5038034;28;20184;-87
2023/10/10 11:29:27;;;;;;;10.63;4.80;;;;;;;-141.97;40.40;47434.50;5037856;28;20576;-87
2023/10/10 11:32:06;;;;;;;12.87;4.53;;;;;;;-141.97;40.41;47492.16;5017426;28;20166;-87
2023/10/10 11:34:42;;;;;;;14.43;5.17;;;;;;;-141.97;40.20;47303.81;5036842;28;20176;-89
2023/10/10 11:37:20;;;;;;;7.90;4.93;;;;;;;-141.97;40.15;47447.97;5021769;28;20231;-87
2023/10/10 11:39:47;;;;;;;15.73;5.63;;;;;;;-141.97;39.83;47653.63;5019908;28;20169;-87
2023/10/10 11:42:35;;;;;;;12.10;5.67;;;;;;;-141.97;39.85;47353.78;5045227;28;20169;-87
2023/10/10 11:45:01;;;;;;;9.13;6.00;;;;;;;-141.97;40.02;47398.00;5014296;28;20222;-87
2023/10/10 11:47:28;;;;;;;9.23;5.93;;;;;;;-141.97;39.98;47419.13;5014804;28;20194;-86
2023/10/10 11:50:05;;;;;;;16.73;6.83;;;;;;;-141.97;40.22;47457.56;5011018;28;20167;-87
2023/10/10 11:52:34;;;;;;;9.50;5.20;;;;;;;-141.97;39.94;47419.13;5005227;28;20613;-87
2023/10/10 11:55:00;;;;;;;14.63;6.13;;;;;;;-141.97;40.13;47449.88;5020924;28;20191;-89
2023/10/10 11:57:28;;;;;;;16.03;5.93;;;;;;;-141.97;40.16;47638.25;5023256;28;20162;-88
2023/10/10 12:00:01;;;;;;;14.67;6.47;;;;;;;-141.97;40.35;47465.25;5020005;28;20194;-88
2023/10/10 12:02:39;;;;;;;9.83;6.30;;;;;;;-141.97;40.05;47499.84;5019403;28;20170;-87
2023/10/10 12:07:53;;;;;;;11.30;6.03;;;;;;;-141.97;40.77;47396.06;5014072;28;20236;-87
2023/10/10 12:10:25;;;;;;;14.00;6.60;;;;;;;-141.97;40.89;47296.13;5018096;28;20615;-87
2023/10/10 12:12:53;;;;;;;10.77;4.70;;;;;;;-141.97;40.38;47234.63;5013818;28;20175;-87
2023/10/10 12:15:22;;;;;;;8.70;5.00;;;;;;;-141.97;40.46;47309.59;5014417;28;20197;-87
2023/10/10 12:17:48;;;;;;;9.13;4.47;;;;;;;-141.97;40.60;47422.97;5012102;28;20198;-86
2023/10/10 12:20:16;;;;;;;10.27;4.20;;;;;;;-141.97;40.56;47365.31;5011703;28;20647;-86
2023/10/10 12:22:41;;;;;;;10.30;4.20;;;;;;;-141.97;40.71;47338.41;5012158;28;20170;-87
2023/10/10 12:25:13;;;;;;;7.33;4.20;;;;;;;-141.97;40.67;47303.81;5014759;28;20488;-86
2023/10/10 12:27:46;;;;;;;10.90;4.03;;;;;;;-141.97;40.68;47624.78;5015259;28;20642;-87
2023/10/10 12:30:18;;;;;;;8.43;4.10;;;;;;;-141.97;40.69;47417.22;5015995;28;20163;-87
2023/10/10 12:32:47;;;;;;;10.17;4.17;;;;;;;-141.97;40.60;47388.38;5015137;28;20194;-85
2023/10/10 12:35:12;;;;;;;10.33;4.23;;;;;;;-141.97;40.36;47434.50;5027303;28;20210;-83
2023/10/10 12:37:38;;;;;;;8.00;3.90;;;;;;;-141.97;40.60;47411.44;5025444;28;20182;-84
2023/10/10 12:40:09;;;;;;;5.83;4.13;;;;;;;-141.97;40.19;47451.81;5026041;28;20182;-83
2023/10/10 12:42:35;;;;;;;6.23;3.73;;;;;;;-141.97;40.20;47447.97;5033665;28;20206;-84
2023/10/10 12:45:01;;;;;;;8.07;3.60;;;;;;;-141.97;40.06;47426.81;5047844;28;20231;-86
2023/10/10 12:47:31;;;;;;;8.63;3.80;;;;;;;-141.97;39.80;47422.97;5054272;28;20169;-86
2023/10/10 12:50:13;;;;;;;4.07;2.87;;;;;;;-141.97;39.52;47436.44;5054921;28;20189;-85
2023/10/10 12:52:45;;;;;;;9.07;3.30;;;;;;;-141.97;39.76;47365.31;5046680;28;20189;-86
2023/10/10 12:55:11;;;;;;;6.17;3.00;;;;;;;-141.97;40.14;47430.66;5014920;28;20247;-85
2023/10/10 12:57:37;;;;;;;4.53;2.50;;;;;;;-141.97;40.00;47390.31;5014824;28;20581;-86
2023/10/10 13:02:49;;;;;;;2.73;2.50;;;;;;;-141.97;40.52;47451.81;5036750;28;20188;-86
2023/10/10 13:05:16;;;;;;;3.73;2.70;;;;;;;-141.97;40.56;47563.28;5042543;28;20158;-85
2023/10/10 13:07:43;;;;;;;7.10;2.87;;;;;;;-141.97;40.87;47446.03;5037654;28;20158;-86
2023/10/10 13:10:13;;;;;;;6.93;3.00;;;;;;;-141.97;41.31;47411.44;5034024;28;20261;-86
2023/10/10 13:12:45;;;;;;;4.73;2.27;;;;;;;-141.97;41.49;47557.53;5014648;28;20650;-84
2023/10/10 13:15:18;;;;;;;4.27;2.37;;;;;;;-141.97;41.02;47430.66;5031469;28;20759;-85
2023/10/10 13:17:52;;;;;;;8.40;3.00;;;;;;;-141.97;40.87;47398.00;5031284;28;20189;-85
2023/10/10 13:20:18;;;;;;;6.40;2.50;;;;;;;-141.97;40.84;47417.22;5031394;28;20693;-86
2023/10/10 13:22:44;;;;;;;5.10;4.07;;;;;;;-141.97;41.41;47219.25;5030965;28;20186;-84
2023/10/10 13:25:10;;;;;;;9.57;4.53;;;;;;;-141.97;42.19;47303.81;5032739;28;20163;-88
2023/10/10 13:27:36;;;;;;;18.53;4.70;;;;;;;-141.97;43.06;47401.84;5032543;28;20161;-88
2023/10/10 13:30:01;;;;;;;7.13;4.80;;;;;;;-141.97;43.61;47613.25;5032163;28;20171;-89
2023/10/10 13:32:27;;;;;;;8.47;5.20;;;;;;;-141.97;43.82;47430.66;5015290;28;20186;-88
2023/10/10 13:34:52;;;;;;;7.50;5.20;;;;;;;-141.97;43.84;47626.72;5032028;28;20218;-86
2023/10/10 13:37:18;;;;;;;8.47;5.50;;;;;;;-141.97;43.54;47657.47;5013998;28;20172;-86
2023/10/10 13:39:47;;;;;;;14.50;6.40;;;;;;;-141.97;43.83;47624.78;5015783;28;20181;-86
2023/10/10 13:42:17;;;;;;;8.57;5.17;;;;;;;-141.97;44.25;47503.69;5032186;28;20161;-87
2023/10/10 13:44:43;;;;;;;9.27;5.40;;;;;;;-141.97;44.20;47296.13;5034268;28;20772;-86
2023/10/10 13:47:09;;;;;;;8.10;5.30;;;;;;;-141.97;43.80;47422.97;5033022;28;20268;-87
2023/10/10 13:49:44;;;;;;;12.17;5.70;;;;;;;-141.97;43.14;47444.13;5052671;28;20169;-86
2023/10/10 13:52:10;;;;;;;7.70;4.97;;;;;;;-141.97;42.92;47484.47;5035046;28;20172;-84
2023/10/10 13:54:36;;;;;;;9.93;5.30;;;;;;;-141.97;42.83;47463.34;5013922;28;20166;-85
2023/10/10 13:57:01;;;;;;;6.07;4.80;;;;;;;-141.97;42.82;47447.97;5031139;28;20188;-87
2023/10/10 13:59:27;;;;;;;8.73;4.97;;;;;;;-141.97;42.13;47440.28;5031243;28;20154;-87
2023/10/10 14:01:54;;;;;;;5.20;3.57;;;;;;;-141.97;42.53;47546.00;5013191;28;20212;-87
2023/10/10 14:04:28;;;;;;;10.37;4.53;;;;;;;-141.97;42.48;47580.59;5013170;28;20178;-86
2023/10/10 14:07:00;;;;;;;6.80;4.20;;;;;;;-141.97;43.06;47373.00;5013602;28;20169;-86
2023/10/10 14:09:31;;;;;;;8.37;4.70;;;;;;;-141.97;42.80;47672.84;5032975;28;20158;-87
2023/10/10 14:12:00;;;;;;;9.57;4.13;;;;;;;-141.97;42.62;47457.56;5024443;28;20229;-87
2023/10/10 14:14:26;;;;;;;6.93;4.30;;;;;;;-141.97;42.92;47376.84;5033570;28;20208;-88
2023/10/10 14:16:51;;;;;;;6.07;4.23;;;;;;;-141.97;43.03;47424.91;5046423;28;20749;-85
2023/10/10 14:19:23;;;;;;;5.63;3.67;;;;;;;-141.97;43.62;47357.63;5040802;28;20174;-86
2023/10/10 14:21:53;;;;;;;5.67;4.00;;;;;;;-141.97;44.33;47557.53;5017558;28;20622;-84
2023/10/10 14:24:19;;;;;;;8.50;4.30;;;;;;;-141.97;43.92;47584.44;5034391;28;20174;-84
2023/10/10 14:26:45;;;;;;;8.70;4.80;;;;;;;-141.97;45.49;47422.97;5035894;28;20174;-85
2023/10/10 14:29:14;;;;;;;8.00;5.10;;;;;;;-141.97;45.87;47463.34;5035096;28;20162;-85
2023/10/10 14:32:03;;;;;;;10.47;5.20;;;;;;;-141.97;45.75;47553.69;5040138;28;20614;-87
2023/10/10 14:34:30;;;;;;;5.60;5.00;;;;;;;-141.97;46.00;47580.59;5020907;28;20255;-87
2023/10/10 14:36:56;;;;;;;7.40;5.10;;;;;;;-141.97;46.33;47488.31;5036438;28;20213;-86
2023/10/10 14:39:44;;;;;;;8.77;4.60;;;;;;;-141.97;46.56;47388.38;5036598;28;20165;-86
2023/10/10 14:42:15;;;;;;;6.57;4.40;;;;;;;-141.97;46.68;47519.06;5034641;28;20265;-86
2023/10/10 14:44:44;;;;;;;10.53;5.00;;;;;;;-141.97;46.42;47530.59;5036787;28;20220;-86
2023/10/10 14:47:46;;;;;;;6.77;4.17;;;;;;;-141.97;47.07;47226.94;5052411;28;20166;-85
2023/10/10 14:50:12;;;;;;;12.77;5.20;;;;;;;-141.97;47.18;47273.06;5053048;28;20233;-84
2023/10/10 14:52:47;;;;;;;9.00;4.43;;;;;;;-141.97;47.29;47496.00;5034602;28;20198;-84
2023/10/10 14:55:27;;;;;;;10.23;4.47;;;;;;;-141.97;47.43;47672.84;5042458;28;20189;-85
2023/10/10 14:57:57;;;;;;;9.07;4.53;;;;;;;-141.97;47.52;47453.72;5035435;28;20169;-88